createdAt,value
2022-12-12T00:00:40.488Z,97408.09
2022-12-12T00:03:07.054Z,97406.13
2022-12-12T00:05:33.479Z,97415.13
2022-12-12T00:07:59.931Z,97415.31
2022-12-12T00:10:26.352Z,97410.09
2022-12-12T00:12:52.693Z,97408.94
2022-12-12T00:15:19.035Z,97408.78
2022-12-12T00:17:45.580Z,97405.34
2022-12-12T00:20:11.905Z,97411.41
2022-12-12T00:22:38.263Z,97411.88
2022-12-12T00:25:05.126Z,97411.06
2022-12-12T00:27:33.394Z,97414.19
2022-12-12T00:29:59.730Z,97414.34
2022-12-12T00:32:26.459Z,97411.06
2022-12-12T00:34:52.789Z,97416.31
2022-12-12T00:37:19.259Z,97417.13
2022-12-12T00:39:46.092Z,97422.63
2022-12-12T00:42:12.477Z,97410.53
2022-12-12T00:44:38.825Z,97412.66
2022-12-12T00:47:05.318Z,97410.88
2022-12-12T00:49:32.318Z,97413.47
2022-12-12T00:51:58.690Z,97412.81
2022-12-12T00:54:25.081Z,97416.25
2022-12-12T00:56:51.584Z,97419.53
2022-12-12T00:59:19.582Z,97421.47
2022-12-12T01:01:46.659Z,97422.47
2022-12-12T01:04:13.185Z,97425.72
2022-12-12T01:06:39.547Z,97422.63
2022-12-12T01:09:05.876Z,97435.72
2022-12-12T01:11:32.472Z,97427.53
2022-12-12T01:13:58.800Z,97429.34
2022-12-12T01:16:25.877Z,97435.53
2022-12-12T01:18:52.720Z,97431.28
2022-12-12T01:21:20.024Z,97432.94
2022-12-12T01:23:47.158Z,97437.50
2022-12-12T01:26:20.303Z,97437.50
2022-12-12T01:28:47.056Z,97438.47
2022-12-12T01:31:14.353Z,97438.66
2022-12-12T01:33:45.708Z,97435.88
2022-12-12T01:36:17.064Z,97438.47
2022-12-12T01:38:47.975Z,97433.09
2022-12-12T01:41:15.252Z,97441.25
2022-12-12T01:43:41.754Z,97433.56
2022-12-12T01:46:31.006Z,97437.50
2022-12-12T01:49:03.388Z,97443.22
2022-12-12T01:51:31.075Z,97441.44
2022-12-12T01:54:02.525Z,97441.28
2022-12-12T01:56:29.329Z,97445.53
2022-12-12T01:58:56.611Z,97451.41
2022-12-12T02:01:23.517Z,97451.56
2022-12-12T02:03:50.311Z,97451.69
2022-12-12T02:06:22.348Z,97450.88
2022-12-12T02:08:51.189Z,97458.84
2022-12-12T02:11:17.524Z,97453.78
2022-12-12T02:13:44.321Z,97460.31
2022-12-12T02:16:35.627Z,97462.75
2022-12-12T02:19:07.802Z,97454.25
2022-12-12T02:21:54.329Z,97455.25
2022-12-12T02:24:59.107Z,97450.16
2022-12-12T02:27:54.419Z,97459.00
2022-12-12T02:30:24.257Z,97449.50
2022-12-12T02:33:04.387Z,97448.22
2022-12-12T02:35:58.490Z,97462.75
2022-12-12T02:38:50.131Z,97459.34
2022-12-12T02:41:36.123Z,97463.41
2022-12-12T02:44:10.541Z,97456.41
2022-12-12T02:46:46.842Z,97466.50
2022-12-12T02:49:13.145Z,97464.56
2022-12-12T02:51:40.444Z,97465.06
2022-12-12T02:54:14.552Z,97459.53
2022-12-12T02:56:53.008Z,97462.59
2022-12-12T02:59:25.507Z,97467.19
2022-12-12T03:02:23.025Z,97461.59
2022-12-12T03:05:22.728Z,97466.84
2022-12-12T03:08:04.993Z,97473.34
2022-12-12T03:10:37.255Z,97468.94
2022-12-12T03:13:27.091Z,97470.91
2022-12-12T03:16:15.034Z,97467.81
2022-12-12T03:19:06.285Z,97479.59
2022-12-12T03:21:46.824Z,97477.13
2022-12-12T03:24:39.902Z,97473.53
2022-12-12T03:27:15.976Z,97474.69
2022-12-12T03:29:55.225Z,97483.31
2022-12-12T03:32:30.638Z,97476.13
2022-12-12T03:35:03.206Z,97486.25
2022-12-12T03:37:46.268Z,97480.03
2022-12-12T03:40:29.794Z,97476.44
2022-12-12T03:43:10.923Z,97482.16
2022-12-12T03:45:45.968Z,97478.25
2022-12-12T03:48:18.366Z,97473.69
2022-12-12T03:50:51.470Z,97474.00
2022-12-12T03:53:26.621Z,97479.91
2022-12-12T03:56:02.829Z,97478.59
2022-12-12T03:58:43.311Z,97477.75
2022-12-12T04:01:12.817Z,97481.31
2022-12-12T04:03:56.385Z,97481.00
2022-12-12T04:06:37.041Z,97485.69
2022-12-12T04:09:26.404Z,97490.50
2022-12-12T04:12:32.059Z,97485.75
2022-12-12T04:15:01.231Z,97483.00
2022-12-12T04:17:47.639Z,97481.38
2022-12-12T04:20:58.504Z,97496.25
2022-12-12T04:23:38.278Z,97489.56
2022-12-12T04:26:34.470Z,97486.66
2022-12-12T04:29:09.374Z,97500.22
2022-12-12T04:31:41.245Z,97491.72
2022-12-12T04:34:17.469Z,97490.34
2022-12-12T04:36:45.304Z,97496.25
2022-12-12T04:39:14.591Z,97491.97
2022-12-12T04:41:44.539Z,97497.19
2022-12-12T04:44:13.460Z,97493.09
2022-12-12T04:46:41.216Z,97505.34
2022-12-12T04:49:15.637Z,97504.22
2022-12-12T04:51:46.876Z,97501.78
2022-12-12T04:54:30.336Z,97500.16
2022-12-12T04:57:01.745Z,97504.06
2022-12-12T04:59:29.152Z,97508.16
2022-12-12T05:02:03.783Z,97507.19
2022-12-12T05:04:45.775Z,97507.34
2022-12-12T05:07:39.835Z,97516.81
2022-12-12T05:10:10.705Z,97512.72
2022-12-12T05:12:47.132Z,97511.84
2022-12-12T05:15:15.986Z,97513.50
2022-12-12T05:17:45.860Z,97514.91
2022-12-12T05:20:13.654Z,97514.25
2022-12-12T05:22:40.008Z,97512.94
2022-12-12T05:25:07.110Z,97518.47
2022-12-12T05:27:33.885Z,97521.72
2022-12-12T05:30:00.388Z,97527.75
2022-12-12T05:32:26.903Z,97528.09
2022-12-12T05:34:53.251Z,97529.13
2022-12-12T05:37:19.673Z,97536.84
2022-12-12T05:39:45.991Z,97527.25
2022-12-12T05:42:12.705Z,97533.56
2022-12-12T05:44:39.131Z,97538.78
2022-12-12T05:47:05.490Z,97527.53
2022-12-12T05:49:31.840Z,97531.94
2022-12-12T05:51:58.328Z,97541.34
2022-12-12T05:54:24.731Z,97542.31
2022-12-12T05:56:51.056Z,97540.88
2022-12-12T05:59:17.461Z,97536.19
2022-12-12T06:01:43.928Z,97536.25
2022-12-12T06:04:10.500Z,97545.56
2022-12-12T06:06:36.999Z,97549.81
2022-12-12T06:09:03.685Z,97544.91
2022-12-12T06:11:30.360Z,97548.25
2022-12-12T06:13:56.681Z,97555.81
2022-12-12T06:16:23.031Z,97547.75
2022-12-12T06:18:53.680Z,97555.13
2022-12-12T06:21:21.000Z,97553.06
2022-12-12T06:23:48.827Z,97556.63
2022-12-12T06:26:17.127Z,97557.31
2022-12-12T06:28:44.309Z,97562.38
2022-12-12T06:31:12.460Z,97561.09
2022-12-12T06:33:41.875Z,97564.16
2022-12-12T06:36:19.123Z,97556.03
2022-12-12T06:38:45.506Z,97556.50
2022-12-12T06:41:14.515Z,97571.03
2022-12-12T06:43:41.845Z,97562.69
2022-12-12T06:46:13.853Z,97560.50
2022-12-12T06:48:40.435Z,97565.53
2022-12-12T06:51:08.759Z,97572.53
2022-12-12T06:53:35.328Z,97572.69
2022-12-12T06:56:09.077Z,97566.34
2022-12-12T06:58:36.463Z,97573.22
2022-12-12T07:01:03.936Z,97576.63
2022-12-12T07:03:30.303Z,97577.47
2022-12-12T07:05:56.944Z,97579.41
2022-12-12T07:08:23.415Z,97575.31
2022-12-12T07:10:49.842Z,97579.03
2022-12-12T07:13:16.271Z,97580.53
2022-12-12T07:15:44.048Z,97587.75
2022-12-12T07:18:10.688Z,97590.22
2022-12-12T07:20:41.664Z,97585.53
2022-12-12T07:23:09.140Z,97590.28
2022-12-12T07:25:40.181Z,97586.09
2022-12-12T07:28:07.628Z,97593.31
2022-12-12T07:30:34.401Z,97589.28
2022-12-12T07:33:00.752Z,97595.53
2022-12-12T07:35:28.112Z,97596.41
2022-12-12T07:37:56.446Z,97593.97
2022-12-12T07:40:23.441Z,97598.75
2022-12-12T07:42:50.069Z,97605.47
2022-12-12T07:45:18.669Z,97607.13
2022-12-12T07:47:45.728Z,97608.59
2022-12-12T07:50:12.167Z,97610.75
2022-12-12T07:52:38.627Z,97613.09
2022-12-12T07:55:05.911Z,97617.53
2022-12-12T07:57:32.481Z,97619.22
2022-12-12T07:59:59.114Z,97623.22
2022-12-12T08:02:25.769Z,97616.25
2022-12-12T08:04:52.152Z,97626.75
2022-12-12T08:07:18.511Z,97619.75
2022-12-12T08:09:44.817Z,97624.88
2022-12-12T08:12:11.221Z,97628.16
2022-12-12T08:14:37.897Z,97639.94
2022-12-12T08:17:04.289Z,97634.75
2022-12-12T08:19:30.619Z,97634.91
2022-12-12T08:21:56.946Z,97629.97
2022-12-12T08:24:23.502Z,97635.88
2022-12-12T08:26:51.681Z,97632.44
2022-12-12T08:29:18.030Z,97643.25
2022-12-12T08:31:44.470Z,97631.13
2022-12-12T08:34:10.853Z,97640.47
2022-12-12T08:36:37.308Z,97632.09
2022-12-12T08:39:06.971Z,97634.25
2022-12-12T08:41:39.495Z,97635.88
2022-12-12T08:44:10.900Z,97639.97
2022-12-12T08:46:38.042Z,97639.31
2022-12-12T08:49:05.435Z,97637.16
2022-12-12T08:51:31.814Z,97638.13
2022-12-12T08:53:58.194Z,97637.16
2022-12-12T08:56:24.647Z,97640.75
2022-12-12T08:58:52.006Z,97650.72
2022-12-12T09:01:21.948Z,97648.75
2022-12-12T09:03:48.897Z,97656.28
2022-12-12T09:06:16.472Z,97655.63
2022-12-12T09:08:43.111Z,97653.31
2022-12-12T09:11:09.919Z,97654.75
2022-12-12T09:13:36.872Z,97662.63
2022-12-12T09:16:04.288Z,97662.41
2022-12-12T09:18:30.707Z,97661.06
2022-12-12T09:20:58.531Z,97668.81
2022-12-12T09:23:26.731Z,97666.84
2022-12-12T09:25:53.775Z,97673.72
2022-12-12T09:28:21.872Z,97679.63
2022-12-12T09:30:48.623Z,97675.66
2022-12-12T09:33:16.216Z,97676.19
2022-12-12T09:35:43.019Z,97675.84
2022-12-12T09:38:14.262Z,97674.38
2022-12-12T09:40:59.949Z,97683.06
2022-12-12T09:43:36.355Z,97677.56
2022-12-12T09:46:05.323Z,97679.88
2022-12-12T09:48:49.737Z,97684.84
2022-12-12T09:51:16.691Z,97684.03
2022-12-12T09:53:46.443Z,97682.25
2022-12-12T09:56:24.781Z,97680.44
2022-12-12T09:59:18.737Z,97692.53
2022-12-12T10:01:58.940Z,97677.63
2022-12-12T10:04:49.398Z,97678.25
2022-12-12T10:07:29.461Z,97688.63
2022-12-12T10:10:14.618Z,97687.31
2022-12-12T10:12:41.388Z,97684.84
2022-12-12T10:15:38.830Z,97685.66
2022-12-12T10:18:10.006Z,97683.84
2022-12-12T10:20:45.415Z,97679.41
2022-12-12T10:23:19.455Z,97686.13
2022-12-12T10:26:18.282Z,97677.25
2022-12-12T10:28:46.215Z,97683.16
2022-12-12T10:31:20.452Z,97688.72
2022-12-12T10:33:55.857Z,97682.34
2022-12-12T10:36:43.860Z,97688.88
2022-12-12T10:39:34.567Z,97688.84
2022-12-12T10:42:04.608Z,97697.50
2022-12-12T10:44:54.642Z,97682.97
2022-12-12T10:47:21.114Z,97685.19
2022-12-12T10:49:47.709Z,97681.84
2022-12-12T10:52:18.577Z,97679.44
2022-12-12T10:54:48.854Z,97673.72
2022-12-12T10:57:26.848Z,97677.88
2022-12-12T10:59:58.572Z,97672.00
2022-12-12T11:02:41.300Z,97667.16
2022-12-12T11:05:16.832Z,97668.44
2022-12-12T11:07:46.634Z,97669.16
2022-12-12T11:10:34.970Z,97659.00
2022-12-12T11:13:08.833Z,97664.25
2022-12-12T11:15:44.960Z,97662.44
2022-12-12T11:18:22.362Z,97670.56
2022-12-12T11:20:52.751Z,97676.25
2022-12-12T11:23:24.005Z,97681.88
2022-12-12T11:25:58.837Z,97675.97
2022-12-12T11:28:29.749Z,97676.78
2022-12-12T11:30:57.217Z,97676.78
2022-12-12T11:33:32.872Z,97677.81
2022-12-12T11:36:01.766Z,97668.84
2022-12-12T11:38:31.872Z,97675.16
2022-12-12T11:41:04.677Z,97670.13
2022-12-12T11:43:35.728Z,97664.44
2022-12-12T11:46:17.797Z,97669.50
2022-12-12T11:48:47.191Z,97665.41
2022-12-12T11:51:29.795Z,97662.47
2022-12-12T11:53:56.221Z,97667.56
2022-12-12T11:56:50.044Z,97662.94
2022-12-12T11:59:21.756Z,97665.38
2022-12-12T12:02:25.448Z,97666.50
2022-12-12T12:05:11.780Z,97665.44
2022-12-12T12:08:15.305Z,97664.47
2022-12-12T12:10:53.853Z,97660.50
2022-12-12T12:13:48.178Z,97654.56
2022-12-12T12:16:23.962Z,97658.16
2022-12-12T12:19:19.957Z,97645.78
2022-12-12T12:22:08.744Z,97655.41
2022-12-12T12:25:05.671Z,97664.09
2022-12-12T12:27:41.434Z,97657.56
2022-12-12T12:30:20.176Z,97671.13
2022-12-12T12:33:12.761Z,97659.50
2022-12-12T12:36:09.108Z,97671.00
2022-12-12T12:39:01.503Z,97661.31
2022-12-12T12:41:42.995Z,97665.41
2022-12-12T12:44:31.551Z,97664.81
2022-12-12T12:47:12.001Z,97667.09
2022-12-12T12:49:44.958Z,97672.00
2022-12-12T12:52:25.000Z,97664.16
2022-12-12T12:54:56.649Z,97664.34
2022-12-12T12:57:29.217Z,97664.91
2022-12-12T13:00:05.210Z,97660.16
2022-12-12T13:02:50.183Z,97665.41
2022-12-12T13:05:27.247Z,97660.00
2022-12-12T13:08:05.436Z,97656.25
2022-12-12T13:10:33.597Z,97658.69
2022-12-12T13:13:22.815Z,97657.69
2022-12-12T13:15:56.412Z,97657.16
2022-12-12T13:18:22.874Z,97664.19
2022-12-12T13:20:55.060Z,97659.22
2022-12-12T13:23:37.796Z,97658.00
2022-12-12T13:26:06.895Z,97663.09
2022-12-12T13:28:39.974Z,97665.06
2022-12-12T13:31:18.159Z,97661.16
2022-12-12T13:33:51.808Z,97664.00
2022-12-12T13:36:30.197Z,97666.97
2022-12-12T13:39:00.530Z,97673.03
2022-12-12T13:41:27.560Z,97667.50
2022-12-12T13:43:59.723Z,97666.53
2022-12-12T13:46:28.725Z,97666.72
2022-12-12T13:49:07.304Z,97662.78
2022-12-12T13:51:38.668Z,97666.41
2022-12-12T13:54:13.218Z,97667.72
2022-12-12T13:56:45.962Z,97672.50
2022-12-12T13:59:27.398Z,97670.41
2022-12-12T14:01:59.478Z,97670.06
2022-12-12T14:04:41.956Z,97664.44
2022-12-12T14:07:17.603Z,97673.84
2022-12-12T14:09:49.501Z,97676.69
2022-12-12T14:12:20.278Z,97674.88
2022-12-12T14:14:59.042Z,97672.06
2022-12-12T14:17:29.075Z,97680.94
2022-12-12T14:19:58.758Z,97678.31
2022-12-12T14:22:48.858Z,97680.78
2022-12-12T14:25:15.141Z,97667.63
2022-12-12T14:27:50.479Z,97665.97
2022-12-12T14:30:18.757Z,97669.75
2022-12-12T14:32:59.228Z,97671.25
2022-12-12T14:35:31.386Z,97669.13
2022-12-12T14:38:19.099Z,97671.59
2022-12-12T14:40:48.265Z,97661.56
2022-12-12T14:43:25.611Z,97672.06
2022-12-12T14:46:00.418Z,97671.94
2022-12-12T14:48:34.828Z,97677.81
2022-12-12T14:51:25.899Z,97673.25
2022-12-12T14:53:57.119Z,97679.47
2022-12-12T14:56:38.462Z,97672.59
2022-12-12T14:59:16.412Z,97679.13
2022-12-12T15:01:52.728Z,97679.44
2022-12-12T15:04:25.706Z,97671.59
2022-12-12T15:06:53.962Z,97668.16
2022-12-12T15:09:39.346Z,97668.28
2022-12-12T15:12:11.354Z,97675.00
2022-12-12T15:14:53.005Z,97674.66
2022-12-12T15:17:36.180Z,97680.88
2022-12-12T15:20:09.784Z,97676.56
2022-12-12T15:22:38.824Z,97677.22
2022-12-12T15:25:17.603Z,97670.66
2022-12-12T15:27:53.703Z,97671.66
2022-12-12T15:30:36.968Z,97684.25
2022-12-12T15:33:04.995Z,97682.22
2022-12-12T15:35:31.426Z,97686.31
2022-12-12T15:38:07.494Z,97687.75
2022-12-12T15:40:35.983Z,97681.19
2022-12-12T15:43:06.794Z,97685.63
2022-12-12T15:45:35.459Z,97681.97
2022-12-12T15:48:02.915Z,97679.97
2022-12-12T15:50:50.794Z,97681.94
2022-12-12T15:53:33.912Z,97685.69
2022-12-12T15:56:07.868Z,97680.94
2022-12-12T15:58:40.343Z,97690.56
2022-12-12T16:01:19.991Z,97694.69
2022-12-12T16:03:58.414Z,97691.75
2022-12-12T16:06:27.320Z,97695.53
2022-12-12T16:09:24.071Z,97697.38
2022-12-12T16:11:52.467Z,97693.31
2022-12-12T16:14:24.921Z,97691.34
2022-12-12T16:17:03.479Z,97688.41
2022-12-12T16:19:52.115Z,97693.34
2022-12-12T16:22:39.709Z,97694.31
2022-12-12T16:25:21.601Z,97692.19
2022-12-12T16:27:57.401Z,97698.56
2022-12-12T16:30:24.322Z,97704.09
2022-12-12T16:32:50.691Z,97701.94
2022-12-12T16:35:20.848Z,97712.41
2022-12-12T16:37:47.586Z,97716.38
2022-12-12T16:40:15.906Z,97718.34
2022-12-12T16:42:45.166Z,97713.31
2022-12-12T16:45:12.421Z,97710.03
2022-12-12T16:47:38.794Z,97707.28
2022-12-12T16:50:05.498Z,97704.00
2022-12-12T16:52:31.910Z,97703.66
2022-12-12T16:54:58.272Z,97709.94
2022-12-12T16:57:24.639Z,97697.78
2022-12-12T16:59:51.030Z,97706.63
2022-12-12T17:02:21.306Z,97712.34
2022-12-12T17:04:49.130Z,97714.72
2022-12-12T17:07:15.471Z,97715.34
2022-12-12T17:09:42.200Z,97707.97
2022-12-12T17:12:09.319Z,97709.09
2022-12-12T17:14:37.342Z,97716.75
2022-12-12T17:17:05.009Z,97708.66
2022-12-12T17:19:31.848Z,97711.59
2022-12-12T17:21:58.230Z,97705.19
2022-12-12T17:24:24.640Z,97709.69
2022-12-12T17:26:51.018Z,97705.34
2022-12-12T17:29:17.617Z,97719.72
2022-12-12T17:31:44.036Z,97714.41
2022-12-12T17:34:11.017Z,97715.44
2022-12-12T17:36:37.870Z,97720.31
2022-12-12T17:39:04.953Z,97715.53
2022-12-12T17:41:31.376Z,97729.88
2022-12-12T17:43:57.810Z,97722.75
2022-12-12T17:46:25.324Z,97726.94
2022-12-12T17:48:52.973Z,97732.91
2022-12-12T17:51:22.053Z,97735.56
2022-12-12T17:53:50.946Z,97732.88
2022-12-12T17:56:22.808Z,97736.22
2022-12-12T17:58:50.221Z,97731.69
2022-12-12T18:01:20.768Z,97729.69
2022-12-12T18:03:48.170Z,97721.63
2022-12-12T18:06:15.891Z,97727.13
2022-12-12T18:08:43.186Z,97727.69
2022-12-12T18:11:21.339Z,97722.22
2022-12-12T18:13:48.532Z,97720.19
2022-12-12T18:16:16.197Z,97727.63
2022-12-12T18:18:43.267Z,97719.25
2022-12-12T18:21:23.699Z,97728.84
2022-12-12T18:24:01.695Z,97719.00
2022-12-12T18:26:28.473Z,97720.53
2022-12-12T18:28:58.096Z,97723.72
2022-12-12T18:31:24.801Z,97726.72
2022-12-12T18:33:52.763Z,97733.34
2022-12-12T18:36:21.918Z,97729.50
2022-12-12T18:38:48.611Z,97735.16
2022-12-12T18:41:16.388Z,97736.25
2022-12-12T18:43:46.249Z,97738.31
2022-12-12T18:46:18.761Z,97730.91
2022-12-12T18:48:47.116Z,97733.66
2022-12-12T18:51:23.282Z,97742.97
2022-12-12T18:53:52.075Z,97738.44
2022-12-12T18:56:21.941Z,97736.13
2022-12-12T18:58:48.596Z,97738.31
2022-12-12T19:01:21.303Z,97737.25
2022-12-12T19:03:50.421Z,97749.03
2022-12-12T19:06:20.647Z,97754.09
2022-12-12T19:08:48.089Z,97750.13
2022-12-12T19:11:15.128Z,97752.59
2022-12-12T19:13:46.595Z,97763.56
2022-12-12T19:16:16.227Z,97757.53
2022-12-12T19:18:43.810Z,97758.63
2022-12-12T19:21:19.734Z,97753.97
2022-12-12T19:23:46.540Z,97746.84
2022-12-12T19:26:15.572Z,97748.31
2022-12-12T19:28:43.289Z,97751.34
2022-12-12T19:31:14.761Z,97746.53
2022-12-12T19:33:42.881Z,97740.78
2022-12-12T19:36:21.224Z,97746.81
2022-12-12T19:38:48.912Z,97745.88
2022-12-12T19:41:18.519Z,97746.81
2022-12-12T19:43:46.514Z,97754.75
2022-12-12T19:46:25.513Z,97753.13
2022-12-12T19:49:00.698Z,97749.94
2022-12-12T19:51:29.497Z,97760.06
2022-12-12T19:53:58.116Z,97761.16
2022-12-12T19:56:27.819Z,97762.25
2022-12-12T19:58:56.031Z,97756.63
2022-12-12T20:01:26.316Z,97763.31
2022-12-12T20:04:02.800Z,97755.91
2022-12-12T20:06:29.258Z,97764.00
2022-12-12T20:08:58.035Z,97762.47
2022-12-12T20:11:24.804Z,97762.19
2022-12-12T20:13:53.435Z,97757.63
2022-12-12T20:16:22.097Z,97749.28
2022-12-12T20:18:49.731Z,97763.34
2022-12-12T20:21:43.602Z,97752.53
2022-12-12T20:24:05.472Z,97755.13
2022-12-12T20:26:32.069Z,97756.91
2022-12-12T20:29:00.477Z,97754.56
2022-12-12T20:31:29.518Z,97751.78
2022-12-12T20:33:58.456Z,97761.06
2022-12-12T20:36:30.652Z,97757.78
2022-12-12T20:38:58.853Z,97760.38
2022-12-12T20:41:27.609Z,97761.47
2022-12-12T20:43:55.400Z,97767.63
2022-12-12T20:46:25.407Z,97766.09
2022-12-12T20:48:51.896Z,97768.69
2022-12-12T20:51:52.726Z,97768.13
2022-12-12T20:54:07.659Z,97764.16
2022-12-12T20:56:35.119Z,97765.81
2022-12-12T20:59:03.024Z,97763.31
2022-12-12T21:01:32.135Z,97769.44
2022-12-12T21:04:00.046Z,97763.56
2022-12-12T21:06:32.182Z,97759.31
2022-12-12T21:09:04.567Z,97761.78
2022-12-12T21:11:32.198Z,97758.22
2022-12-12T21:13:59.209Z,97756.84
2022-12-12T21:16:29.852Z,97761.63
2022-12-12T21:18:58.647Z,97752.69
2022-12-12T21:21:25.395Z,97757.56
2022-12-12T21:23:52.038Z,97749.75
2022-12-12T21:26:26.757Z,97751.31
2022-12-12T21:28:55.741Z,97749.53
2022-12-12T21:31:28.595Z,97753.19
2022-12-12T21:33:55.857Z,97756.72
2022-12-12T21:36:23.727Z,97757.13
2022-12-12T21:38:51.557Z,97753.94
2022-12-12T21:41:20.213Z,97756.94
2022-12-12T21:43:46.897Z,97762.38
2022-12-12T21:46:15.784Z,97763.13
2022-12-12T21:48:42.150Z,97760.66
2022-12-12T21:53:43.826Z,97767.63
2022-12-12T21:56:15.894Z,97760.53
2022-12-12T21:58:44.112Z,97772.00
2022-12-12T22:01:15.216Z,97769.91
2022-12-12T22:03:42.553Z,97771.50
2022-12-12T22:06:30.487Z,97761.09
2022-12-12T22:08:59.047Z,97758.31
2022-12-12T22:11:40.022Z,97755.97
2022-12-12T22:14:09.518Z,97754.81
2022-12-12T22:16:36.172Z,97751.78
2022-12-12T22:19:06.173Z,97744.25
2022-12-12T22:21:34.495Z,97744.47
2022-12-12T22:24:01.253Z,97746.38
2022-12-12T22:26:29.204Z,97744.47
2022-12-12T22:28:58.715Z,97741.06
2022-12-12T22:31:28.266Z,97745.66
2022-12-12T22:34:00.353Z,97742.25
2022-12-12T22:36:29.883Z,97741.19
2022-12-12T22:38:57.963Z,97740.94
2022-12-12T22:41:25.897Z,97741.75
2022-12-12T22:43:54.592Z,97736.81
2022-12-12T22:48:59.203Z,97737.81
2022-12-12T22:51:28.379Z,97733.56
2022-12-12T22:53:56.572Z,97733.69
2022-12-12T22:56:23.274Z,97734.63
2022-12-12T23:06:48.911Z,97713.41
2022-12-12T23:09:40.734Z,97722.25
2022-12-12T23:12:07.186Z,97719.34
2022-12-12T23:14:33.626Z,97719.72
2022-12-12T23:16:59.964Z,97719.97
2022-12-12T23:19:28.727Z,97717.72
2022-12-12T23:21:55.236Z,97703.13
2022-12-12T23:24:21.642Z,97712.53
2022-12-12T23:26:51.303Z,97714.41
2022-12-12T23:29:20.052Z,97716.09
2022-12-12T23:31:46.937Z,97713.59
2022-12-12T23:34:17.539Z,97705.34
2022-12-12T23:36:44.056Z,97708.56
2022-12-12T23:39:11.721Z,97710.81
2022-12-12T23:41:38.119Z,97705.16
2022-12-12T23:44:05.562Z,97707.03
2022-12-12T23:46:32.569Z,97708.09
2022-12-12T23:49:13.132Z,97716.00
2022-12-12T23:51:42.249Z,97711.19
2022-12-12T23:54:14.280Z,97704.72
2022-12-12T23:56:40.644Z,97704.97
2022-12-12T23:59:07.581Z,97697.31
